Time;durP1;ratioP1;P1;durP2;ratioP2;P2;SDS_P1;SDS_P2;PMS_P1;PMS_P2;Temp;Humidity;BMP_temperature;BMP_pressure;BME280_temperature;BME280_humidity;BME280_pressure;Samples;Min_cycle;Max_cycle;Signal;HPM_P1;HPM_P2
2021/11/09 00:01:02;;;;;;;7.20;3.90;;;9.80;99.90;;;;;;4991175;28;20447;-62
2021/11/09 00:03:30;;;;;;;10.23;4.43;;;9.80;99.90;;;;;;4991550;28;20840;-63
2021/11/09 00:06:04;;;;;;;6.70;3.63;;;9.80;99.90;;;;;;4991707;28;20451;-59
2021/11/09 00:08:36;;;;;;;6.97;3.23;;;9.80;99.90;;;;;;4991543;28;20427;-60
2021/11/09 00:11:02;;;;;;;10.93;3.93;;;9.80;99.90;;;;;;4991692;28;20427;-59
2021/11/09 00:13:29;;;;;;;6.20;4.30;;;9.80;99.90;;;;;;4991363;28;20454;-63
2021/11/09 00:15:58;;;;;;;7.97;4.10;;;9.90;99.90;;;;;;4991017;28;20470;-62
2021/11/09 00:18:24;;;;;;;6.80;4.93;;;9.90;99.90;;;;;;4990768;28;20475;-62
2021/11/09 00:20:51;;;;;;;15.40;3.60;;;9.90;99.90;;;;;;4990639;28;20798;-64
2021/11/09 00:23:20;;;;;;;6.00;3.63;;;9.90;99.90;;;;;;4992019;28;20461;-61
2021/11/09 00:25:47;;;;;;;6.27;3.73;;;9.90;99.90;;;;;;4995429;28;20509;-59
2021/11/09 00:28:14;;;;;;;6.63;3.73;;;9.90;99.90;;;;;;4994888;28;20474;-61
2021/11/09 00:30:41;;;;;;;7.33;4.80;;;9.90;99.90;;;;;;4995512;28;20736;-59
2021/11/09 00:33:09;;;;;;;8.73;4.70;;;9.80;99.90;;;;;;4995189;28;20466;-61
2021/11/09 00:35:37;;;;;;;6.70;3.80;;;9.80;99.90;;;;;;4995559;28;20446;-64
2021/11/09 00:38:06;;;;;;;6.93;3.50;;;9.80;99.90;;;;;;4995034;28;20490;-62
2021/11/09 00:40:36;;;;;;;6.33;4.23;;;9.80;99.90;;;;;;4994559;28;20450;-63
2021/11/09 00:43:04;;;;;;;11.47;3.87;;;9.80;99.90;;;;;;4994015;28;20505;-63
2021/11/09 00:45:32;;;;;;;8.20;4.00;;;9.90;99.90;;;;;;4994230;28;20451;-62
2021/11/09 00:47:59;;;;;;;5.27;3.17;;;9.90;99.90;;;;;;4993953;28;20451;-63
2021/11/09 00:50:28;;;;;;;6.30;4.10;;;9.90;99.90;;;;;;4994187;28;20998;-63
2021/11/09 00:52:55;;;;;;;7.23;3.97;;;9.90;99.90;;;;;;4993666;28;20471;-60
2021/11/09 00:55:24;;;;;;;21.13;4.97;;;10.00;99.90;;;;;;4994329;28;20630;-64
2021/11/09 00:57:53;;;;;;;11.23;4.10;;;9.90;99.90;;;;;;4993796;28;20502;-63
2021/11/09 01:00:22;;;;;;;8.13;3.90;;;9.90;99.90;;;;;;4994101;28;20442;-63
2021/11/09 01:02:52;;;;;;;7.90;4.13;;;9.90;99.90;;;;;;4994457;28;20463;-62
2021/11/09 01:05:23;;;;;;;8.80;3.87;;;9.90;99.90;;;;;;4994075;28;20462;-60
2021/11/09 01:07:52;;;;;;;7.10;3.37;;;10.00;99.90;;;;;;4994640;28;20479;-60
2021/11/09 01:10:19;;;;;;;16.23;4.90;;;10.00;99.90;;;;;;4994312;28;20470;-63
2021/11/09 01:12:46;;;;;;;5.03;3.47;;;10.00;99.90;;;;;;4993694;28;20474;-63
2021/11/09 01:15:16;;;;;;;5.10;3.40;;;9.90;99.90;;;;;;4993277;28;20486;-62
2021/11/09 01:17:43;;;;;;;12.53;4.80;;;10.00;99.90;;;;;;4993707;28;20482;-61
2021/11/09 01:20:15;;;;;;;5.43;3.00;;;10.00;99.90;;;;;;4993026;28;20971;-62
2021/11/09 01:22:45;;;;;;;12.33;4.17;;;10.00;99.90;;;;;;4993811;28;20478;-64
2021/11/09 01:25:15;;;;;;;5.53;3.67;;;10.00;99.90;;;;;;4993487;28;20447;-63
2021/11/09 01:27:42;;;;;;;6.03;2.90;;;10.10;99.90;;;;;;4993339;28;20478;-61
2021/11/09 01:30:11;;;;;;;6.27;3.53;;;10.00;99.90;;;;;;4993495;28;20459;-61
2021/11/09 01:32:41;;;;;;;14.53;3.90;;;10.10;99.90;;;;;;4993197;28;20879;-59
2021/11/09 01:35:09;;;;;;;6.00;3.60;;;10.10;99.90;;;;;;4993004;28;20446;-60
2021/11/09 01:37:36;;;;;;;7.57;4.03;;;10.10;99.90;;;;;;4992407;28;20467;-59
2021/11/09 01:40:04;;;;;;;5.23;3.53;;;10.10;99.90;;;;;;4993098;28;20483;-59
2021/11/09 01:42:30;;;;;;;4.70;3.00;;;10.10;99.90;;;;;;4993236;28;20470;-63
2021/11/09 01:44:57;;;;;;;6.60;3.80;;;10.10;99.90;;;;;;4993125;28;20435;-63
2021/11/09 01:47:24;;;;;;;5.50;2.63;;;10.10;99.90;;;;;;4992881;28;20490;-58
2021/11/09 01:49:52;;;;;;;10.67;4.60;;;10.10;99.90;;;;;;4992806;28;20511;-58
2021/11/09 01:52:19;;;;;;;4.00;2.90;;;10.10;99.90;;;;;;4992430;28;20502;-63
2021/11/09 01:54:46;;;;;;;7.10;3.40;;;10.10;99.90;;;;;;4992394;28;20463;-61
2021/11/09 01:57:12;;;;;;;5.80;3.50;;;10.20;99.90;;;;;;4992481;28;20463;-60
2021/11/09 01:59:39;;;;;;;5.77;3.43;;;10.20;99.90;;;;;;4992403;28;20471;-62
2021/11/09 02:02:06;;;;;;;7.00;3.07;;;10.20;99.90;;;;;;4992324;28;20486;-62
2021/11/09 02:04:33;;;;;;;11.03;3.50;;;10.20;99.90;;;;;;4992217;28;20490;-63
2021/11/09 02:07:01;;;;;;;8.33;2.83;;;10.30;99.90;;;;;;4992445;28;20517;-62
2021/11/09 02:09:28;;;;;;;5.90;2.80;;;10.30;99.90;;;;;;4992762;28;20442;-62
2021/11/09 02:11:55;;;;;;;6.80;3.47;;;10.30;99.90;;;;;;4992281;28;20517;-58
2021/11/09 02:14:23;;;;;;;3.63;2.50;;;10.30;99.90;;;;;;4992352;28;20486;-63
2021/11/09 02:16:52;;;;;;;3.00;2.20;;;10.30;99.90;;;;;;4992619;28;20454;-63
2021/11/09 02:19:19;;;;;;;4.23;3.23;;;10.30;99.90;;;;;;4991368;28;20490;-63
2021/11/09 02:21:49;;;;;;;3.77;2.40;;;10.30;99.90;;;;;;4992083;28;20451;-63
2021/11/09 02:24:15;;;;;;;7.23;3.53;;;10.30;99.90;;;;;;4991890;28;20542;-65
2021/11/09 02:26:42;;;;;;;5.40;2.70;;;10.30;99.90;;;;;;4991673;28;20935;-63
2021/11/09 02:29:09;;;;;;;2.63;2.00;;;10.30;99.90;;;;;;4991923;28;20474;-63
2021/11/09 02:31:36;;;;;;;8.70;3.20;;;10.30;99.90;;;;;;4991306;28;20447;-59
2021/11/09 02:34:03;;;;;;;3.73;2.27;;;10.30;99.90;;;;;;4991675;28;20793;-63
2021/11/09 02:36:31;;;;;;;4.60;2.70;;;10.30;99.90;;;;;;4990936;28;20494;-61
2021/11/09 02:38:59;;;;;;;5.30;2.80;;;10.30;99.90;;;;;;4991235;28;20478;-63
2021/11/09 02:41:26;;;;;;;10.70;3.23;;;10.30;99.90;;;;;;4991048;28;20468;-64
2021/11/09 02:43:55;;;;;;;4.93;2.70;;;10.30;99.90;;;;;;4990900;28;20471;-64
2021/11/09 02:46:39;;;;;;;7.47;3.10;;;10.30;99.90;;;;;;4990845;28;20474;-61
2021/11/09 02:49:13;;;;;;;3.60;3.13;;;10.30;99.90;;;;;;4990880;28;20495;-63
2021/11/09 02:51:42;;;;;;;5.57;3.87;;;10.30;99.90;;;;;;4991353;28;20474;-61
2021/11/09 02:54:16;;;;;;;5.67;3.30;;;10.30;99.90;;;;;;4990727;28;20502;-59
2021/11/09 02:56:47;;;;;;;5.30;3.63;;;10.20;99.90;;;;;;4991538;28;20451;-62
2021/11/09 03:02:03;;;;;;;4.00;3.20;;;10.20;99.90;;;;;;4990718;28;20491;-60
2021/11/09 03:04:40;;;;;;;21.57;4.50;;;10.30;99.90;;;;;;4991862;28;20454;-64
2021/11/09 03:07:09;;;;;;;4.80;3.90;;;10.30;99.90;;;;;;4990858;28;20435;-60
2021/11/09 03:09:50;;;;;;;7.00;3.77;;;10.30;99.90;;;;;;4990826;28;20966;-64
2021/11/09 03:12:17;;;;;;;4.80;3.23;;;10.30;99.90;;;;;;4990426;28;20597;-61
2021/11/09 03:14:45;;;;;;;10.90;4.10;;;10.30;99.90;;;;;;4990867;28;20454;-58
2021/11/09 03:17:17;;;;;;;6.00;3.23;;;10.30;99.90;;;;;;4990540;28;20450;-63
2021/11/09 03:19:47;;;;;;;8.00;3.73;;;10.30;99.90;;;;;;4991018;28;20855;-61
2021/11/09 03:44:26;;;;;;;9.60;4.30;;;10.20;99.90;;;;;;4990175;28;20474;-61
2021/11/09 03:46:56;;;;;;;23.97;4.17;;;10.20;99.90;;;;;;4990784;28;20450;-62
2021/11/09 03:49:27;;;;;;;13.23;4.57;;;10.20;99.90;;;;;;4990885;28;20490;-62
2021/11/09 03:51:55;;;;;;;6.80;4.50;;;10.20;99.90;;;;;;4990457;28;20470;-62
2021/11/09 03:54:27;;;;;;;10.37;4.97;;;10.20;99.90;;;;;;4990767;28;20514;-60
2021/11/09 03:57:01;;;;;;;7.83;4.13;;;10.20;99.90;;;;;;4990836;28;20518;-61
2021/11/09 03:59:38;;;;;;;10.90;4.00;;;10.20;99.90;;;;;;4993948;28;20502;-63
2021/11/09 04:02:14;;;;;;;7.27;4.50;;;10.10;99.90;;;;;;4994869;28;20871;-62
2021/11/09 04:04:46;;;;;;;4.20;3.40;;;10.10;99.90;;;;;;4995170;28;20481;-63
2021/11/09 04:07:16;;;;;;;11.07;4.67;;;10.10;99.90;;;;;;4995970;28;20435;-63
2021/11/09 04:10:00;;;;;;;8.13;4.30;;;10.00;99.90;;;;;;4994827;28;20470;-63
2021/11/09 04:12:40;;;;;;;11.40;5.67;;;10.00;99.90;;;;;;4994396;28;20454;-63
2021/11/09 04:15:19;;;;;;;7.70;4.87;;;10.00;99.90;;;;;;4994548;28;20935;-62
2021/11/09 04:20:34;;;;;;;9.03;4.57;;;10.00;99.90;;;;;;4990616;28;20484;-61
2021/11/09 04:28:49;;;;;;;10.03;4.20;;;10.00;99.90;;;;;;4961602;28;20570;-63
2021/11/09 04:31:38;;;;;;;12.57;4.50;;;10.10;99.90;;;;;;4994470;28;20446;-61
2021/11/09 05:02:07;;;;;;;7.30;4.07;;;10.20;99.90;;;;;;4994219;28;20415;-64
2021/11/09 05:10:09;;;;;;;5.23;3.73;;;10.20;99.90;;;;;;4992543;28;20474;-62
2021/11/09 05:12:38;;;;;;;6.20;4.00;;;10.20;99.90;;;;;;4993217;28;20431;-62
2021/11/09 05:15:05;;;;;;;10.97;5.23;;;10.20;99.90;;;;;;4993038;28;20543;-63
2021/11/09 05:17:34;;;;;;;12.83;5.03;;;10.20;99.90;;;;;;4993083;28;20467;-63
2021/11/09 05:20:04;;;;;;;18.97;5.00;;;10.20;99.90;;;;;;4997632;23;20525;-62
2021/11/09 05:22:45;;;;;;;6.20;3.80;;;10.20;99.90;;;;;;4982555;28;20554;-61
2021/11/09 05:25:16;;;;;;;15.90;5.33;;;10.20;99.90;;;;;;5002771;23;20485;-57
2021/11/09 05:27:46;;;;;;;21.90;5.90;;;10.30;99.90;;;;;;5000150;28;20442;-63
2021/11/09 05:30:15;;;;;;;7.93;4.10;;;10.30;99.90;;;;;;5000104;28;20470;-63
2021/11/09 05:32:43;;;;;;;11.50;6.37;;;10.30;99.90;;;;;;5000475;28;20450;-63
2021/11/09 05:35:11;;;;;;;7.40;5.23;;;10.30;99.90;;;;;;5000521;28;20489;-62
2021/11/09 05:37:40;;;;;;;10.20;6.00;;;10.30;99.90;;;;;;5000531;28;20469;-64
2021/11/09 05:40:08;;;;;;;10.50;5.03;;;10.30;99.90;;;;;;5000192;28;20489;-63
2021/11/09 05:42:35;;;;;;;11.83;5.30;;;10.30;99.90;;;;;;5000481;28;20457;-63
2021/11/09 05:45:04;;;;;;;13.10;5.13;;;10.20;99.90;;;;;;5007699;23;21036;-63
2021/11/09 05:47:31;;;;;;;8.90;5.57;;;10.30;99.90;;;;;;5002097;28;20454;-63
2021/11/09 05:49:59;;;;;;;9.93;4.73;;;10.20;99.90;;;;;;5002996;28;20837;-63
2021/11/09 05:52:35;;;;;;;15.63;6.10;;;10.20;99.90;;;;;;5010575;23;20881;-60
2021/11/09 05:55:01;;;;;;;13.97;6.00;;;10.20;99.90;;;;;;5002891;28;20474;-61
2021/11/09 05:57:28;;;;;;;17.13;6.60;;;10.20;99.90;;;;;;4997062;23;20511;-63
2021/11/09 05:59:57;;;;;;;10.90;5.80;;;10.20;99.90;;;;;;4987673;28;20494;-62
2021/11/09 06:02:24;;;;;;;9.90;6.10;;;10.20;99.90;;;;;;5012976;23;20495;-62
2021/11/09 06:04:54;;;;;;;15.10;5.10;;;10.20;99.90;;;;;;5011013;28;20474;-59
2021/11/09 06:07:22;;;;;;;11.80;4.93;;;10.20;99.90;;;;;;5033780;23;20529;-60
2021/11/09 06:09:49;;;;;;;10.57;5.20;;;10.20;99.90;;;;;;5011455;28;20466;-61
2021/11/09 06:12:15;;;;;;;8.17;4.10;;;10.20;99.90;;;;;;5018243;23;20482;-63
2021/11/09 06:14:43;;;;;;;20.87;5.67;;;10.20;99.90;;;;;;5004514;28;20522;-60
2021/11/09 06:17:10;;;;;;;9.10;4.67;;;10.20;99.90;;;;;;5025008;22;20498;-60
2021/11/09 06:19:37;;;;;;;18.10;5.27;;;10.30;99.90;;;;;;5001640;28;20557;-60
2021/11/09 06:22:05;;;;;;;11.40;4.80;;;10.30;99.90;;;;;;5008943;23;21044;-64
2021/11/09 06:24:33;;;;;;;10.50;6.07;;;10.20;99.90;;;;;;5002650;28;20469;-64
2021/11/09 06:27:00;;;;;;;7.37;5.20;;;10.20;99.90;;;;;;5009294;22;20688;-63
2021/11/09 06:29:28;;;;;;;15.53;6.33;;;10.20;99.90;;;;;;5002260;28;20505;-63
2021/11/09 06:31:59;;;;;;;12.57;5.80;;;10.20;99.90;;;;;;5010677;23;20454;-61
2021/11/09 06:34:26;;;;;;;23.83;6.10;;;10.20;99.90;;;;;;5001218;28;20497;-64
2021/11/09 06:36:55;;;;;;;12.53;6.80;;;10.20;99.90;;;;;;5001598;28;20434;-63
2021/11/09 06:39:25;;;;;;;5.87;4.27;;;10.20;99.90;;;;;;5009384;23;20492;-60
2021/11/09 06:41:54;;;;;;;17.70;5.50;;;10.20;99.90;;;;;;5002379;28;20521;-64
2021/11/09 06:44:21;;;;;;;18.53;5.70;;;10.20;99.90;;;;;;5009979;23;20493;-63
2021/11/09 06:46:48;;;;;;;11.93;4.90;;;10.20;99.90;;;;;;5002033;28;20517;-63
2021/11/09 06:49:15;;;;;;;12.07;4.90;;;10.30;99.90;;;;;;5009483;23;20502;-63
2021/11/09 06:51:42;;;;;;;8.37;4.70;;;10.30;99.90;;;;;;5001858;28;20457;-63
2021/11/09 06:54:09;;;;;;;12.33;5.37;;;10.20;99.90;;;;;;5025615;23;20982;-64
2021/11/09 06:56:37;;;;;;;6.00;4.77;;;10.20;99.90;;;;;;5002482;28;20446;-64
2021/11/09 06:59:06;;;;;;;9.40;5.77;;;10.30;99.90;;;;;;5000149;23;20494;-63
2021/11/09 07:01:33;;;;;;;15.30;5.97;;;10.30;99.90;;;;;;4981666;28;20495;-63
2021/11/09 07:04:00;;;;;;;10.20;5.80;;;10.30;99.90;;;;;;5005189;22;20978;-63
2021/11/09 07:06:30;;;;;;;14.17;5.60;;;10.30;99.90;;;;;;5001255;28;20458;-63
2021/11/09 07:08:57;;;;;;;10.03;5.73;;;10.30;99.90;;;;;;5008252;23;20521;-63
2021/11/09 07:11:25;;;;;;;12.87;5.83;;;10.30;99.90;;;;;;5001252;28;20466;-63
2021/11/09 07:13:52;;;;;;;12.13;5.40;;;10.30;99.90;;;;;;5008826;23;20441;-64
2021/11/09 07:16:24;;;;;;;11.43;5.33;;;10.30;99.90;;;;;;5011989;28;20461;-59
2021/11/09 07:18:56;;;;;;;7.33;5.20;;;10.30;99.90;;;;;;5055661;22;20438;-54
2021/11/09 07:21:23;;;;;;;12.93;5.90;;;10.30;99.90;;;;;;4995362;28;20495;-60
2021/11/09 07:26:33;;;;;;;11.27;6.30;;;10.30;99.90;;;;;;5003669;23;20498;-61
2021/11/09 07:29:00;;;;;;;8.13;5.30;;;10.30;99.90;;;;;;4997101;28;20443;-61
2021/11/09 07:31:30;;;;;;;18.23;7.83;;;10.30;99.90;;;;;;5004705;23;20501;-68
2021/11/09 07:33:57;;;;;;;9.60;5.50;;;10.20;99.90;;;;;;4996795;28;20435;-66
2021/11/09 07:36:25;;;;;;;16.57;5.87;;;10.20;99.90;;;;;;5035804;22;20497;-63
2021/11/09 07:38:51;;;;;;;8.73;5.63;;;10.30;99.90;;;;;;5010645;28;20485;-65
2021/11/09 07:41:18;;;;;;;12.50;5.70;;;10.30;99.90;;;;;;5006767;28;20520;-63
2021/11/09 07:43:45;;;;;;;10.80;5.40;;;10.30;99.90;;;;;;5014491;28;20685;-61
2021/11/09 07:46:12;;;;;;;10.40;5.60;;;10.20;99.90;;;;;;5072790;23;20492;-57
2021/11/09 07:48:46;;;;;;;9.63;5.77;;;10.20;99.90;;;;;;5053742;28;20436;-60
2021/11/09 07:51:13;;;;;;;23.50;6.60;;;10.20;99.90;;;;;;5044475;28;20464;-67
2021/11/09 07:53:41;;;;;;;13.60;5.90;;;10.30;99.90;;;;;;5023808;28;20457;-66
2021/11/09 07:56:16;;;;;;;7.97;5.80;;;10.30;99.90;;;;;;5018725;28;20469;-61
2021/11/09 07:58:58;;;;;;;7.73;5.90;;;10.30;99.90;;;;;;5033838;28;20432;-67
2021/11/09 08:01:31;;;;;;;24.43;7.50;;;10.30;99.90;;;;;;5028043;28;20573;-65
2021/11/09 08:04:07;;;;;;;18.00;6.97;;;10.30;99.90;;;;;;5028878;28;20803;-63
2021/11/09 08:06:45;;;;;;;12.43;6.53;;;10.30;99.90;;;;;;5034358;28;20847;-64
2021/11/09 08:09:20;;;;;;;34.30;6.77;;;10.40;99.90;;;;;;5023776;28;20436;-61
2021/11/09 08:11:49;;;;;;;15.90;6.20;;;10.40;99.90;;;;;;5026300;28;20837;-64
2021/11/09 08:14:17;;;;;;;20.47;7.00;;;10.50;99.90;;;;;;5031546;28;20444;-65
2021/11/09 08:16:46;;;;;;;10.90;5.63;;;10.50;99.90;;;;;;5019078;28;20480;-63
2021/11/09 08:19:18;;;;;;;12.50;6.50;;;10.50;99.90;;;;;;5026346;28;20459;-63
2021/11/09 08:21:45;;;;;;;11.33;6.20;;;10.50;99.90;;;;;;5026974;28;20988;-64
2021/11/09 08:24:16;;;;;;;9.37;6.07;;;10.50;99.90;;;;;;5031370;28;20510;-62
2021/11/09 08:26:47;;;;;;;13.17;6.43;;;10.50;99.90;;;;;;5025388;28;20469;-61
2021/11/09 08:29:15;;;;;;;18.63;6.23;;;10.50;99.90;;;;;;5032716;28;20845;-62
2021/11/09 08:31:45;;;;;;;13.07;5.50;;;10.50;99.90;;;;;;5026784;28;20476;-62
2021/11/09 08:34:14;;;;;;;6.47;5.13;;;10.50;99.90;;;;;;5022811;28;20433;-61
2021/11/09 08:36:44;;;;;;;16.73;7.10;;;10.50;99.90;;;;;;5034577;28;20483;-63
2021/11/09 08:39:16;;;;;;;17.10;5.00;;;10.60;99.90;;;;;;5022956;28;20448;-62
2021/11/09 08:41:47;;;;;;;12.90;7.73;;;10.60;99.90;;;;;;5036807;28;20488;-64
2021/11/09 08:44:18;;;;;;;9.50;5.97;;;10.70;99.90;;;;;;5038500;28;20453;-63
2021/11/09 08:46:50;;;;;;;11.57;7.00;;;10.70;99.90;;;;;;5038963;28;20495;-62
2021/11/09 08:49:18;;;;;;;15.23;7.20;;;10.60;99.90;;;;;;5026910;28;20444;-65
2021/11/09 08:51:49;;;;;;;7.80;6.00;;;10.70;99.90;;;;;;5030171;28;20825;-65
2021/11/09 08:54:20;;;;;;;13.17;6.40;;;10.70;99.90;;;;;;5034260;28;20478;-63
2021/11/09 08:56:56;;;;;;;11.63;7.60;;;10.70;99.90;;;;;;5024086;28;20459;-64
2021/11/09 09:04:54;;;;;;;7.13;5.43;;;10.80;99.90;;;;;;5038407;28;20428;-63
2021/11/09 09:07:23;;;;;;;12.63;7.30;;;10.80;99.90;;;;;;5040173;28;20488;-62
2021/11/09 09:09:51;;;;;;;13.70;6.93;;;10.80;99.90;;;;;;5028107;28;20528;-66
2021/11/09 09:12:18;;;;;;;10.60;5.60;;;10.80;99.90;;;;;;5038832;28;20579;-65
2021/11/09 09:14:45;;;;;;;14.73;6.83;;;10.80;99.90;;;;;;5023621;28;20444;-64
2021/11/09 09:17:12;;;;;;;14.23;6.30;;;10.90;99.90;;;;;;5038986;28;20440;-63
2021/11/09 09:19:42;;;;;;;16.10;5.57;;;10.90;99.90;;;;;;5030051;28;20755;-63
2021/11/09 09:22:11;;;;;;;10.53;6.27;;;11.00;99.90;;;;;;5019783;28;20469;-64
2021/11/09 09:24:58;;;;;;;10.47;5.80;;;11.00;99.90;;;;;;5036101;28;20520;-62
2021/11/09 09:27:31;;;;;;;8.07;6.33;;;11.10;99.90;;;;;;5038048;28;20466;-59
2021/11/09 09:30:17;;;;;;;12.80;6.60;;;11.20;99.90;;;;;;5027426;28;20447;-63
2021/11/09 09:52:50;;;;;;;10.20;6.87;;;12.10;99.90;;;;;;5005415;28;20538;-63
2021/11/09 09:55:39;;;;;;;10.57;5.63;;;12.90;99.90;;;;;;5012218;22;20561;-65
2021/11/09 09:58:10;;;;;;;10.83;6.63;;;13.90;99.90;;;;;;5005192;28;20875;-60
2021/11/09 10:00:39;;;;;;;8.53;5.40;;;14.30;99.90;;;;;;5006231;22;20526;-63
2021/11/09 10:03:06;;;;;;;9.93;5.40;;;14.80;99.90;;;;;;4983594;28;20779;-61
2021/11/09 10:05:37;;;;;;;12.13;5.73;;;15.80;99.90;;;;;;5008363;23;20486;-66
2021/11/09 10:08:11;;;;;;;17.13;5.47;;;16.80;99.90;;;;;;5001309;28;20454;-67
2021/11/09 10:10:38;;;;;;;13.93;4.90;;;17.90;99.90;;;;;;5008522;23;20450;-64
2021/11/09 10:13:09;;;;;;;14.03;4.40;;;18.70;99.90;;;;;;5001272;28;20473;-66
2021/11/09 10:15:38;;;;;;;7.07;4.83;;;19.00;99.90;;;;;;5008991;23;20423;-64
2021/11/09 10:18:07;;;;;;;6.70;4.70;;;19.40;99.90;;;;;;5001091;28;20481;-63
2021/11/09 10:23:19;;;;;;;8.80;4.70;;;20.00;99.90;;;;;;5005374;22;20521;-62
2021/11/09 10:25:46;;;;;;;12.70;5.80;;;20.10;99.90;;;;;;5000436;28;20457;-65
2021/11/09 10:28:18;;;;;;;8.97;4.73;;;19.90;99.90;;;;;;4999241;23;20491;-65
2021/11/09 10:30:49;;;;;;;12.27;6.57;;;19.70;99.90;;;;;;4980845;28;20443;-63
2021/11/09 10:33:19;;;;;;;8.30;4.20;;;19.60;99.90;;;;;;5005524;23;20482;-62
2021/11/09 10:35:48;;;;;;;5.70;3.97;;;18.90;99.90;;;;;;5000167;28;20864;-65
2021/11/09 10:38:30;;;;;;;11.23;5.23;;;17.80;99.90;;;;;;5007377;23;20528;-65
2021/11/09 10:41:34;;;;;;;;;;;;;;;;;;;;;
2021/11/09 10:44:10;;;;;;;14.80;5.33;;;16.40;99.90;;;;;;5007823;23;20982;-63
2021/11/09 10:49:13;;;;;;;15.80;7.70;;;15.30;99.90;;;;;;5006451;23;20942;-64
2021/11/09 10:54:45;;;;;;;11.03;4.00;;;14.60;99.90;;;;;;5005990;22;20473;-65
2021/11/09 10:57:19;;;;;;;6.20;2.70;;;14.40;99.90;;;;;;4998835;28;20474;-64
2021/11/09 10:59:59;;;;;;;5.47;3.40;;;14.20;99.90;;;;;;4998985;28;20472;-62
2021/11/09 11:05:21;;;;;;;15.33;4.00;;;13.80;99.90;;;;;;4999317;28;20414;-65
2021/11/09 11:07:55;;;;;;;14.67;4.90;;;13.60;99.90;;;;;;5016107;23;20483;-63
2021/11/09 11:10:28;;;;;;;11.10;4.57;;;13.60;99.90;;;;;;5038828;28;20455;-62
2021/11/09 11:16:05;;;;;;;6.43;4.10;;;13.60;99.90;;;;;;5027254;22;20483;-64
2021/11/09 11:18:38;;;;;;;15.90;4.47;;;13.60;99.90;;;;;;5027528;23;20461;-56
2021/11/09 11:21:06;;;;;;;7.00;4.40;;;13.60;99.90;;;;;;5017048;28;20567;-63
2021/11/09 11:26:11;;;;;;;8.10;4.77;;;13.80;99.90;;;;;;5004222;22;20966;-60
2021/11/09 11:31:23;;;;;;;5.17;3.17;;;13.80;99.90;;;;;;5025349;22;20517;-63
2021/11/09 11:33:51;;;;;;;6.50;2.73;;;13.80;99.90;;;;;;5017687;28;20464;-63
2021/11/09 11:36:20;;;;;;;3.27;2.43;;;13.70;99.90;;;;;;5027121;22;20856;-66
2021/11/09 11:38:53;;;;;;;6.73;2.83;;;13.70;99.90;;;;;;5017096;28;20445;-69
2021/11/09 11:41:24;;;;;;;3.90;2.97;;;13.70;99.90;;;;;;5034069;22;20489;-66
2021/11/09 11:43:53;;;;;;;4.00;2.13;;;13.70;99.90;;;;;;5018860;28;20445;-62
2021/11/09 11:46:50;;;;;;;7.03;3.00;;;13.60;99.90;;;;;;5026907;23;20571;-62
2021/11/09 11:49:23;;;;;;;5.90;2.63;;;13.50;99.90;;;;;;5011672;28;20489;-62
2021/11/09 11:52:19;;;;;;;10.60;3.23;;;13.50;99.90;;;;;;5025382;22;20503;-62
2021/11/09 11:54:58;;;;;;;27.17;5.70;;;13.40;99.90;;;;;;5027343;22;20433;-52
2021/11/09 11:57:41;;;;;;;9.97;3.57;;;13.30;99.90;;;;;;4995557;28;20505;-62
2021/11/09 12:00:43;;;;;;;6.20;2.10;;;13.30;99.90;;;;;;5005210;22;20927;-64
2021/11/09 12:03:35;;;;;;;8.20;2.93;;;13.10;99.90;;;;;;5052477;23;20529;-65
2021/11/09 12:08:37;;;;;;;3.00;1.80;;;13.00;99.90;;;;;;5000618;22;20496;-64
2021/11/09 12:11:06;;;;;;;7.23;2.60;;;13.00;99.90;;;;;;4978893;28;20903;-57
2021/11/09 12:13:54;;;;;;;4.40;1.90;;;13.10;99.90;;;;;;5018964;23;20556;-59
2021/11/09 12:19:05;;;;;;;5.40;2.03;;;13.00;99.90;;;;;;5021788;22;20473;-59
2021/11/09 12:24:19;;;;;;;7.50;1.90;;;12.90;99.90;;;;;;5022978;22;20954;-58
2021/11/09 12:29:47;;;;;;;10.17;2.87;;;12.80;99.90;;;;;;5034784;22;20492;-59
2021/11/09 12:32:45;;;;;;;3.93;2.10;;;12.70;99.90;;;;;;5027218;28;20425;-58
2021/11/09 12:35:26;;;;;;;5.97;2.20;;;12.80;99.90;;;;;;4988849;28;20431;-56
2021/11/09 12:38:17;;;;;;;8.23;2.93;;;12.70;99.90;;;;;;5018631;28;20457;-58
2021/11/09 12:41:01;;;;;;;6.93;3.00;;;12.70;99.90;;;;;;5024186;28;20470;-60
2021/11/09 12:43:47;;;;;;;10.63;2.53;;;12.80;99.90;;;;;;5019738;28;20460;-59
2021/11/09 12:46:22;;;;;;;11.03;2.33;;;12.80;99.90;;;;;;5020093;28;20469;-56
2021/11/09 12:48:55;;;;;;;4.53;2.33;;;12.80;99.90;;;;;;5019070;28;20465;-56
2021/11/09 12:51:26;;;;;;;6.53;2.07;;;12.90;99.90;;;;;;5020901;28;20449;-57
2021/11/09 12:53:55;;;;;;;2.00;1.80;;;12.90;99.90;;;;;;5021445;28;20552;-56
2021/11/09 12:56:30;;;;;;;5.17;2.63;;;12.90;99.90;;;;;;5020593;28;20448;-56
2021/11/09 12:59:00;;;;;;;3.57;2.13;;;12.90;99.90;;;;;;5020581;28;20496;-58
2021/11/09 13:01:38;;;;;;;4.00;2.20;;;12.90;99.90;;;;;;5020781;28;20473;-56
2021/11/09 13:04:24;;;;;;;5.43;2.20;;;12.90;99.90;;;;;;5024648;28;20441;-57
2021/11/09 13:06:58;;;;;;;7.60;2.67;;;12.80;99.90;;;;;;5038238;28;20468;-52
2021/11/09 13:09:28;;;;;;;4.20;2.03;;;12.90;99.90;;;;;;5037998;28;20513;-55
2021/11/09 13:11:59;;;;;;;4.23;1.33;;;13.00;99.90;;;;;;5038045;28;20441;-51
2021/11/09 13:14:39;;;;;;;2.70;1.60;;;13.10;99.90;;;;;;5034407;28;20560;-57
2021/11/09 13:17:19;;;;;;;3.90;1.50;;;13.10;99.90;;;;;;5020718;28;20497;-57
2021/11/09 13:19:58;;;;;;;2.77;1.60;;;13.20;99.90;;;;;;5048106;22;20490;-54
2021/11/09 13:22:29;;;;;;;3.10;1.20;;;13.20;99.90;;;;;;5021018;28;20786;-54
2021/11/09 13:25:00;;;;;;;4.57;2.50;;;13.10;99.90;;;;;;5031062;22;20551;-58
2021/11/09 13:27:40;;;;;;;7.63;1.40;;;13.10;99.90;;;;;;5020880;28;20913;-60
2021/11/09 13:30:13;;;;;;;6.60;1.57;;;13.10;99.90;;;;;;5028225;23;20829;-55
2021/11/09 13:32:41;;;;;;;4.37;1.80;;;13.10;99.90;;;;;;5018287;28;20487;-55
2021/11/09 13:35:22;;;;;;;2.63;1.50;;;13.00;99.90;;;;;;5031970;23;20496;-57
2021/11/09 13:37:52;;;;;;;3.40;1.80;;;13.00;99.90;;;;;;5025086;28;20457;-56
2021/11/09 13:40:21;;;;;;;6.40;1.93;;;13.00;99.90;;;;;;5033042;22;20504;-54
2021/11/09 13:43:06;;;;;;;1.97;1.03;;;13.00;99.90;;;;;;5023577;28;20564;-55
2021/11/09 13:45:34;;;;;;;3.73;2.10;;;13.10;99.90;;;;;;5025007;28;20453;-58
2021/11/09 13:48:01;;;;;;;5.93;1.80;;;13.00;99.90;;;;;;5022990;28;20445;-54
2021/11/09 13:50:29;;;;;;;4.53;1.80;;;13.00;99.90;;;;;;5022820;28;20476;-55
2021/11/09 13:52:57;;;;;;;8.90;2.20;;;12.90;99.90;;;;;;5019490;28;20441;-57
2021/11/09 13:55:25;;;;;;;6.07;2.77;;;12.90;99.90;;;;;;5019423;28;20441;-56
2021/11/09 13:57:53;;;;;;;1.80;1.53;;;12.80;99.90;;;;;;5021159;28;21021;-53
2021/11/09 14:00:32;;;;;;;5.27;1.63;;;12.70;99.90;;;;;;5019403;28;20910;-57
2021/11/09 14:03:17;;;;;;;5.33;1.97;;;12.70;99.90;;;;;;5022460;28;20991;-57
2021/11/09 14:08:49;;;;;;;4.80;2.00;;;12.70;99.90;;;;;;5019319;28;20428;-57
2021/11/09 14:16:57;;;;;;;3.20;1.30;;;12.90;99.90;;;;;;4977945;28;20469;-57
2021/11/09 14:19:33;;;;;;;5.37;2.53;;;12.90;99.90;;;;;;5009840;28;20483;-56
2021/11/09 14:22:10;;;;;;;3.27;1.83;;;12.90;99.90;;;;;;5018955;28;20492;-57
2021/11/09 14:24:38;;;;;;;4.27;1.83;;;12.90;99.90;;;;;;5019479;28;20591;-59
2021/11/09 14:27:08;;;;;;;3.30;1.63;;;12.80;99.90;;;;;;5004768;28;20767;-57
2021/11/09 14:29:40;;;;;;;4.40;2.00;;;12.60;99.90;;;;;;5019484;28;20540;-58
2021/11/09 14:32:14;;;;;;;5.03;1.70;;;12.50;99.90;;;;;;5019257;28;20469;-57
2021/11/09 14:34:55;;;;;;;4.80;1.70;;;12.40;99.90;;;;;;5018387;28;20653;-59
2021/11/09 14:37:26;;;;;;;3.70;1.50;;;12.40;99.90;;;;;;5022538;28;20476;-59
2021/11/09 14:40:07;;;;;;;5.70;2.57;;;12.40;99.90;;;;;;5020748;28;20442;-57
2021/11/09 14:45:28;;;;;;;6.50;2.13;;;12.30;99.90;;;;;;5004231;28;20429;-55
2021/11/09 14:47:58;;;;;;;3.13;1.80;;;12.20;99.90;;;;;;5019086;28;20469;-57
2021/11/09 14:50:34;;;;;;;8.23;2.57;;;12.20;99.90;;;;;;5019322;28;20437;-57
2021/11/09 14:53:07;;;;;;;2.73;1.70;;;12.20;99.90;;;;;;5019232;28;20456;-58
2021/11/09 14:55:43;;;;;;;5.43;1.50;;;12.10;99.90;;;;;;5018604;28;20441;-56
2021/11/09 14:58:28;;;;;;;2.80;1.47;;;12.10;99.90;;;;;;5018494;28;20557;-57
2021/11/09 15:00:58;;;;;;;3.77;1.93;;;12.00;99.90;;;;;;5018011;28;20976;-54
2021/11/09 15:03:25;;;;;;;6.40;2.53;;;12.00;99.90;;;;;;5024655;22;20823;-56
2021/11/09 15:05:52;;;;;;;4.67;2.90;;;11.90;99.90;;;;;;5003133;28;20468;-56
2021/11/09 15:08:34;;;;;;;9.13;2.30;;;11.90;99.90;;;;;;5012959;22;20784;-53
2021/11/09 15:11:15;;;;;;;4.83;3.00;;;11.90;99.90;;;;;;5010093;28;20438;-53
2021/11/09 15:27:56;;;;;;;5.20;2.23;;;11.70;99.90;;;;;;4944081;29;20487;-55
2021/11/09 15:30:26;;;;;;;3.10;2.03;;;11.60;99.90;;;;;;4943445;29;20451;-57
2021/11/09 15:32:54;;;;;;;4.67;2.83;;;11.60;99.90;;;;;;4991412;28;20457;-58
2021/11/09 15:35:25;;;;;;;4.67;2.70;;;11.60;99.90;;;;;;5018313;28;20445;-58
2021/11/09 15:37:54;;;;;;;4.03;3.10;;;11.50;99.90;;;;;;5018646;28;20437;-58